Terminal Aerodrome Forecast
Issued by NWS Twin Cities, MN

Home | Current Version | Previous Version | Graphics & Text | Print | Product List | Glossary On
Versions: 1 2 3 4 5 6 7 8 9 10 11 12 13 14 15 16 17 18 19 20 21 22 23 24 25 26 27 28 29
000
FTUS43 KMPX 162300
TAFMSP
TAF
KMSP 162332Z 1700/1806 02015G23KT 1SM -SN BR BKN008 OVC025
      TEMPO 1701/1703 1/2SM SN FG BKN006 OVC018
     FM170330 01015G22KT 4SM -SN BR BKN006 OVC025
     FM170600 34012G20KT P6SM OVC012
     FM171200 34007KT P6SM OVC020
     FM171800 36009KT P6SM SCT020 OVC040
     FM180000 32008KT P6SM SCT100=

USA.gov is the U.S. government's official web portal to all federal, state and local government web resources and services.